Flight Track Log - Related Links

Times and Time Zones

All times are in EDT time to prevent confusion due to time zone crossing. See the AAL1459 flight status page for this flight to view local times or setup timezone preferences in your user account.

Time Position Orientation Groundspeed Altitude Reporting Facility
EDT Latitude Longitude Course Direction KTS MPH feet Rate Location/Type
Thu 06:49:58 PM 41.9500 -87.9167 270° West 156 180 2,300  Level Chicago TRACON
Thu 06:50:58 PM 41.9500 -88.0000 270° West 237 273 4,400 1,153 Climbing Chicago TRACON
Thu 06:52:00 PM 41.9667 -88.3559 270° West  Level FlightAware Approximate
Thu 06:52:55 PM 41.9700 -88.1575 280° West 241 277 5,700  Level Chicago Center
Thu 06:53:00 PM 41.9667 -88.5078 270° West  Level FlightAware Approximate
Thu 06:53:57 PM 41.9789 -88.2533 277° West 256 295 8,700  Level Chicago Center
Thu 06:54:00 PM 41.9668 -88.6598 270° West  Level FlightAware Approximate
Thu 06:54:59 PM 41.9889 -88.3764 276° West 277 319 11,200  Level Chicago Center
Thu 06:55:00 PM 41.9667 -88.8117 270° West  Level FlightAware Approximate
Thu 06:56:01 PM 41.9950 -88.4778 275° West 276 318 14,200  Level Chicago Center
Thu 06:57:03 PM 42.0431 -88.5586 309° West 295 339 17,100 2,732 Climbing Chicago Center
Thu 06:58:04 PM 42.0906 -88.6436 307° West 297 342 19,800 1,902 Climbing Chicago Center
Thu 06:59:06 PM 42.0956 -88.7419 274° West 264 304 21,000 1,548 Climbing Chicago Center
Thu 07:00:08 PM 42.1028 -88.8569 275° West 269 310 23,000 1,452 Climbing Chicago Center
Thu 07:01:10 PM 42.1128 -88.9611 277° West 276 318 24,000 726 Climbing Chicago Center
Thu 07:02:12 PM 42.1094 -89.0733 268° West 298 343 24,500 871 Climbing Chicago Center
Thu 07:03:14 PM 42.1022 -89.1942 265° West 319 367 25,800 1,317 Climbing Chicago Center
Thu 07:04:15 PM 42.0953 -89.3233 266° West 338 389 27,200 1,366 Climbing Chicago Center
Thu 07:05:17 PM 42.0897 -89.4567 267° West 350 403 28,600 1,355 Climbing Chicago Center
Thu 07:06:19 PM 42.0844 -89.6200 268° West 370 426 30,000 1,210 Climbing Chicago Center
Thu 07:07:21 PM 42.0800 -89.7625 268° West 379 436 31,100 1,024 Climbing Chicago Center
Thu 07:08:22 PM 42.0747 -89.9072 267° West 386 444 32,100 927 Climbing Chicago Center
Thu 07:09:24 PM 42.0744 -90.0564 270° West 400 460 33,000 435 Climbing Chicago Center
Thu 07:10:26 PM 42.0828 -90.2094 274° West 410 472 33,000  Level Chicago Center
Thu 07:11:28 PM 42.0903 -90.3606 274° West 408 470 33,000  Level Chicago Center
Thu 07:12:30 PM 42.0961 -90.5111 273° West 406 467 33,000  Level Chicago Center
Thu 07:13:31 PM 42.1036 -90.6914 273° West 405 466 33,000  Level Chicago Center
Thu 07:14:33 PM 42.1092 -90.8403 273° West 403 464 33,000 242 Level Chicago Center
Thu 07:15:35 PM 42.1144 -90.9869 273° West 398 458 33,500 484 Climbing Chicago Center
Thu 07:16:37 PM 42.1200 -91.1378 273° West 400 460 34,000 244 Climbing Chicago Center
Thu 07:17:38 PM 42.1242 -91.2917 272° West 408 470 34,000  Level Chicago Center
Thu 07:18:40 PM 42.1292 -91.4414 273° West 405 466 34,000  Level Chicago Center
Thu 07:19:42 PM 42.1350 -91.5911 273° West 403 464 34,000  Level Chicago Center
Thu 07:20:43 PM 42.1403 -91.7714 272° West 402 463 34,000  Level Chicago Center
Thu 07:21:45 PM 42.1442 -91.9247 272° West 408 470 34,000  Level Chicago Center
Thu 07:22:47 PM 42.1486 -92.0753 272° West 404 465 34,000  Level Chicago Center
Thu 07:23:34 PM 42.1519 -92.2000 272° West 407 468 34,000  Level Minneapolis Center
Thu 07:24:36 PM 42.1561 -92.3500 272° West 405 466 34,000  Level Minneapolis Center
Thu 07:25:37 PM 42.1594 -92.4997 272° West 403 464 34,000  Level Minneapolis Center
Thu 07:26:39 PM 42.1625 -92.6486 272° West 401 461 34,000  Level Minneapolis Center
Thu 07:27:41 PM 42.1667 -92.7972 272° West 400 460 34,000  Level Minneapolis Center
Thu 07:28:42 PM 42.1697 -92.9733 271° West 397 457 34,000  Level Minneapolis Center
Thu 07:29:44 PM 42.1719 -93.1239 271° West 400 460 34,000  Level Minneapolis Center
Thu 07:30:46 PM 42.1761 -93.2722 272° West 400 460 34,000  Level Minneapolis Center
Thu 07:31:48 PM 42.1769 -93.4206 270° West 398 458 34,000  Level Minneapolis Center
Thu 07:32:49 PM 42.1803 -93.5697 272° West 401 461 34,000  Level Minneapolis Center
Thu 07:33:51 PM 42.1822 -93.7194 271° West 403 464 34,000  Level Minneapolis Center
Thu 07:34:53 PM 42.1836 -93.8789 271° West 405 466 34,000  Level Minneapolis Center
Thu 07:35:55 PM 42.1864 -94.0628 271° West 408 470 34,000  Level Minneapolis Center
Thu 07:36:57 PM 42.1875 -94.2153 271° West 408 470 34,000  Level Minneapolis Center
Thu 07:37:59 PM 42.1892 -94.3664 271° West 405 466 34,000  Level Minneapolis Center
Thu 07:39:00 PM 42.1900 -94.5186 270° West 406 467 34,000  Level Minneapolis Center
Thu 07:40:02 PM 42.1914 -94.6736 271° West 413 475 34,000  Level Minneapolis Center
Thu 07:41:04 PM 42.1925 -94.8303 271° West 417 480 34,000  Level Minneapolis Center
Thu 07:42:06 PM 42.1917 -94.9844 270° West 415 478 34,000  Level Minneapolis Center
Thu 07:43:08 PM 42.1917 -95.1700 270° West 413 475 34,000  Level Minneapolis Center
Thu 07:44:09 PM 42.1911 -95.3233 270° West 411 473 34,000  Level Minneapolis Center
Thu 07:45:11 PM 42.1917 -95.4781 270° West 412 474 34,000  Level Minneapolis Center
Thu 07:46:13 PM 42.1914 -95.6289 270° West 408 470 34,000  Level Minneapolis Center
Thu 07:47:15 PM 42.1928 -95.7861 271° West 416 479 34,000  Level Minneapolis Center
Thu 07:48:17 PM 42.1942 -95.9400 271° West 414 476 34,000  Level Minneapolis Center
Thu 07:49:18 PM 42.1953 -96.1256 271° West 415 478 34,000  Level Minneapolis Center
Thu 07:50:20 PM 42.1972 -96.2811 271° West 416 479 34,000  Level Minneapolis Center
Thu 07:51:22 PM 42.1972 -96.4411 270° West 423 487 34,000  Level Minneapolis Center
Thu 07:52:24 PM 42.1978 -96.5983 270° West 424 488 34,000  Level Minneapolis Center
Thu 07:53:26 PM 42.1986 -96.7578 270° West 426 490 34,000  Level Minneapolis Center
Thu 07:54:27 PM 42.1986 -96.9178 270° West 426 490 34,000  Level Minneapolis Center
Thu 07:55:29 PM 42.1975 -97.1103 270° West 430 495 34,000  Level Minneapolis Center
Thu 07:56:31 PM 42.1972 -97.2706 270° West 429 494 34,000  Level Minneapolis Center
Thu 07:57:33 PM 42.1969 -97.4314 270° West 431 496 34,000  Level Minneapolis Center
Thu 07:58:35 PM 42.1972 -97.5933 270° West 432 497 34,000  Level Minneapolis Center
Thu 07:59:36 PM 42.1964 -97.7544 270° West 431 496 34,000  Level Minneapolis Center
Thu 08:00:38 PM 42.1936 -97.9342 269° West 433 498 34,000  Level Minneapolis Center
Thu 08:01:40 PM 42.1922 -98.0950 269° West 432 497 34,000  Level Minneapolis Center
Thu 08:02:42 PM 42.1914 -98.2583 270° West 435 501 34,000  Level Minneapolis Center
Thu 08:03:44 PM 42.1897 -98.4206 269° West 434 499 34,000  Level Minneapolis Center
Thu 08:04:46 PM 42.1864 -98.5828 268° West 434 499 34,000  Level Minneapolis Center
Thu 08:05:47 PM 42.1844 -98.7781 269° West 434 499 34,000  Level Minneapolis Center
Thu 08:06:49 PM 42.1819 -98.9392 269° West 433 498 34,000  Level Minneapolis Center
Thu 08:07:51 PM 42.1781 -99.1014 268° West 433 498 34,000  Level Minneapolis Center
Thu 08:08:53 PM 42.1756 -99.2647 269° West 436 502 34,000  Level Minneapolis Center
Thu 08:09:55 PM 42.1722 -99.4278 268° West 436 502 34,000  Level Minneapolis Center
Thu 08:10:57 PM 42.1689 -99.5892 268° West 434 499 34,000  Level Minneapolis Center
Thu 08:11:58 PM 42.1658 -99.7531 269° West 436 502 34,000  Level Minneapolis Center
Thu 08:12:13 PM 42.1619 -99.8139 265° West 436 502 34,000  Level Denver Center
Thu 08:13:15 PM 42.1583 -99.9706 268° West 439 505 34,000  Level Denver Center
Thu 08:14:16 PM 42.1531 -100.1528 268° West 438 504 34,000  Level Denver Center
Thu 08:15:18 PM 42.1489 -100.3097 268° West 439 505 34,000  Level Denver Center
Thu 08:16:20 PM 42.1433 -100.4906 268° West 436 502 34,000  Level Denver Center
Thu 08:17:22 PM 42.1392 -100.6467 268° West 436 502 34,000  Level Denver Center
Thu 08:18:24 PM 42.1322 -100.8275 267° West 435 501 34,000  Level Denver Center
Thu 08:19:26 PM 42.1278 -100.9822 268° West 434 499 34,000  Level Denver Center
Thu 08:20:28 PM 42.1206 -101.1669 267° West 441 507 34,000  Level Denver Center
Thu 08:21:30 PM 42.1150 -101.3244 267° West 442 509 34,000  Level Denver Center
Thu 08:22:32 PM 42.1078 -101.5078 267° West 441 507 34,000  Level Denver Center
Thu 08:23:34 PM 42.1014 -101.6675 267° West 445 512 34,000  Level Denver Center
Thu 08:24:36 PM 42.0944 -101.8544 267° West 448 516 34,000  Level Denver Center
Thu 08:25:38 PM 42.0872 -102.0128 267° West 445 512 34,000  Level Denver Center
Thu 08:26:40 PM 42.0786 -102.1986 266° West 446 513 34,000  Level Denver Center
Thu 08:27:42 PM 42.0692 -102.3564 265° West 446 513 34,000  Level Denver Center
Thu 08:28:44 PM 42.0611 -102.5403 267° West 443 510 34,000  Level Denver Center
Thu 08:29:46 PM 42.0533 -102.6997 266° West 445 512 34,000  Level Denver Center
Thu 08:30:48 PM 42.0458 -102.8586 266° West 445 512 34,000  Level Denver Center
Thu 08:31:50 PM 42.0364 -103.0453 266° West 446 513 34,000  Level Denver Center
Thu 08:32:52 PM 42.0267 -103.2086 265° West 454 522 34,000  Level Denver Center
Thu 08:33:54 PM 42.0169 -103.3967 266° West 453 521 34,000  Level Denver Center
Thu 08:34:56 PM 42.0075 -103.5583 266° West 452 520 34,000  Level Denver Center
Thu 08:35:58 PM 41.9958 -103.7461 265° West 452 520 34,000 293 Level Denver Center
Thu 08:36:59 PM 41.9869 -103.9072 266° West 452 520 34,600 732 Climbing Denver Center
Thu 08:38:01 PM 41.9772 -104.0686 265° West 451 519 35,500 677 Climbing Denver Center
Thu 08:39:03 PM 41.9653 -104.2586 265° West 455 524 36,000 242 Climbing Denver Center
Thu 08:40:05 PM 41.9544 -104.4214 265° West 455 524 36,000  Level Denver Center
Thu 08:41:07 PM 41.9422 -104.6114 265° West 456 525 36,000  Level Denver Center
Thu 08:42:08 PM 41.9333 -104.7478 265° West 457 526 36,000  Level Denver Center
Thu 08:43:10 PM 41.9183 -104.9606 265° West 449 517 36,000  Level Denver Center
Thu 08:44:12 PM 41.9069 -105.1192 265° West 445 512 36,000  Level Denver Center
Thu 08:45:14 PM 41.8956 -105.2767 265° West 443 510 36,000  Level Denver Center
Thu 08:46:16 PM 41.8828 -105.4603 265° West 442 509 36,000  Level Denver Center
Thu 08:47:17 PM 41.8703 -105.6189 264° West 446 513 36,000  Level Denver Center
Thu 08:48:19 PM 41.8553 -105.8022 264° West 443 510 36,000  Level Denver Center
Thu 08:49:21 PM 41.8447 -105.9586 265° West 440 506 36,000  Level Denver Center
Thu 08:50:23 PM 41.8297 -106.1414 264° West 441 507 36,000  Level Denver Center
Thu 08:51:24 PM 41.8153 -106.2981 263° West 442 509 36,000  Level Denver Center
Thu 08:52:26 PM 41.8028 -106.4583 264° West 449 517 36,000  Level Denver Center
Thu 08:53:28 PM 41.7883 -106.6367 264° West 445 512 36,000  Level Denver Center
Thu 08:54:30 PM 41.7767 -106.7922 264° West 441 507 36,000  Level Denver Center
Thu 08:55:31 PM 41.7589 -106.9719 263° West 437 503 36,000  Level Denver Center
Thu 08:56:33 PM 41.7456 -107.1292 264° West 442 509 36,000  Level Denver Center
Thu 08:57:35 PM 41.7292 -107.3106 263° West 442 509 36,000  Level Denver Center
Thu 08:58:37 PM 41.7153 -107.4672 263° West 443 510 36,000  Level Denver Center
Thu 08:59:38 PM 41.6983 -107.6506 263° West 444 511 36,000  Level Denver Center
Thu 09:00:40 PM 41.6842 -107.8064 263° West 442 509 36,000  Level Denver Center
Thu 09:01:42 PM 41.6667 -107.9872 263° West 440 506 36,000  Level Denver Center
Thu 09:02:44 PM 41.6519 -108.1422 263° West 442 509 36,000  Level Denver Center
Thu 09:03:07 PM 41.6447 -108.1950 260° West 442 509 36,000  Level Salt Lake Center
Thu 09:04:08 PM 41.6269 -108.3753 263° West 440 506 36,000  Level Salt Lake Center
Thu 09:05:10 PM 41.6122 -108.5294 263° West 439 505 36,000  Level Salt Lake Center
Thu 09:06:11 PM 41.5944 -108.7097 263° West 439 505 36,000  Level Salt Lake Center
Thu 09:07:13 PM 41.5789 -108.8619 262° West 436 502 36,000  Level Salt Lake Center
Thu 09:08:14 PM 41.5592 -109.0406 262° West 439 505 36,000  Level Salt Lake Center
Thu 09:09:16 PM 41.5431 -109.1911 262° West 440 506 36,000  Level Salt Lake Center
Thu 09:10:17 PM 41.5239 -109.3678 262° West 438 504 36,000  Level Salt Lake Center
Thu 09:11:19 PM 41.5067 -109.5208 262° West 438 504 36,000  Level Salt Lake Center
Thu 09:12:20 PM 41.4864 -109.7000 261° West 440 506 36,000  Level Salt Lake Center
Thu 09:13:22 PM 41.4689 -109.8539 261° West 440 506 36,000  Level Salt Lake Center
Thu 09:14:23 PM 41.4514 -110.0078 261° West 440 506 36,000  Level Salt Lake Center
Thu 09:15:25 PM 41.4308 -110.1889 261° West 444 511 36,000  Level Salt Lake Center
Thu 09:16:26 PM 41.4125 -110.3444 261° West 444 511 36,000  Level Salt Lake Center
Thu 09:17:27 PM 41.3903 -110.5286 261° West 452 520 36,000  Level Salt Lake Center
Thu 09:18:29 PM 41.3714 -110.6869 261° West 454 522 36,000  Level Salt Lake Center
Thu 09:19:30 PM 41.3514 -110.8453 260° West 454 522 36,000  Level Salt Lake Center
Thu 09:20:32 PM 41.3306 -111.0156 261° West 454 522 36,000  Level Salt Lake Center
Thu 09:21:33 PM 41.3103 -111.1794 261° West 452 520 36,000  Level Salt Lake Center
Thu 09:22:35 PM 41.2856 -111.3753 261° West 452 520 36,000  Level Salt Lake Center
Thu 09:23:36 PM 41.2650 -111.5361 260° West 446 513 36,000  Level Salt Lake Center
Thu 09:24:37 PM 41.2436 -111.6967 260° West 447 514 36,000  Level Salt Lake Center
Thu 09:25:39 PM 41.2233 -111.8569 261° West 449 517 36,000  Level Salt Lake Center
Thu 09:26:40 PM 41.2019 -112.0172 260° West 451 519 36,000  Level Salt Lake Center
Thu 09:27:42 PM 41.1797 -112.1786 260° West 451 519 36,000  Level Salt Lake Center
Thu 09:28:43 PM 41.1539 -112.3736 260° West 450 518 36,000  Level Salt Lake Center
Thu 09:29:44 PM 41.1311 -112.5369 260° West 450 518 36,000  Level Salt Lake Center
Thu 09:30:46 PM 41.1086 -112.6994 260° West 451 519 36,000  Level Salt Lake Center
Thu 09:31:47 PM 41.0861 -112.8631 260° West 452 520 36,000  Level Salt Lake Center
Thu 09:32:48 PM 41.0625 -113.0278 259° West 455 524 36,000  Level Salt Lake Center
Thu 09:33:50 PM 41.0403 -113.1906 260° West 452 520 36,000  Level Salt Lake Center
Thu 09:34:51 PM 41.0147 -113.3511 258° West 447 514 36,000  Level Salt Lake Center
Thu 09:35:52 PM 40.9906 -113.5131 259° West 449 517 36,000  Level Salt Lake Center
Thu 09:36:54 PM 40.9633 -113.7072 260° West 448 516 36,000  Level Salt Lake Center
Thu 09:37:55 PM 40.9389 -113.8694 259° West 451 519 36,000  Level Salt Lake Center
Thu 09:38:57 PM 40.9142 -114.0303 259° West 449 517 36,000  Level Salt Lake Center
Thu 09:39:58 PM 40.8894 -114.1925 259° West 450 518 36,000  Level Salt Lake Center
Thu 09:40:59 PM 40.8647 -114.3547 259° West 452 520 36,000  Level Salt Lake Center
Thu 09:42:01 PM 40.8358 -114.5325 258° West 454 522 36,000  Level Salt Lake Center
Thu 09:43:02 PM 40.8119 -114.6908 259° West 457 526 36,000  Level Salt Lake Center
Thu 09:44:04 PM 40.7889 -114.8453 259° West 452 520 36,000  Level Salt Lake Center
Thu 09:45:05 PM 40.7586 -115.0256 258° West 450 518 36,000  Level Salt Lake Center
Thu 09:46:07 PM 40.7333 -115.1786 258° West 448 516 36,000  Level Salt Lake Center
Thu 09:47:08 PM 40.7039 -115.3564 258° West 445 512 36,000  Level Salt Lake Center
Thu 09:48:10 PM 40.6764 -115.5086 257° West 445 512 36,000  Level Salt Lake Center
Thu 09:49:11 PM 40.6528 -115.6614 259° West 446 513 36,000  Level Salt Lake Center
Thu 09:50:13 PM 40.6233 -115.8394 258° West 445 512 36,000  Level Salt Lake Center
Thu 09:51:14 PM 40.5969 -115.9928 257° West 447 514 36,000  Level Salt Lake Center
Thu 09:52:16 PM 40.5675 -116.1722 258° West 449 517 36,000  Level Salt Lake Center
Thu 09:53:17 PM 40.5394 -116.3264 257° West 452 520 36,000  Level Salt Lake Center
Thu 09:54:19 PM 40.5092 -116.5042 257° West 447 514 36,000  Level Salt Lake Center
Thu 09:55:20 PM 40.4831 -116.6558 257° West 447 514 36,000  Level Salt Lake Center
Thu 09:56:22 PM 40.4569 -116.8019 257° West 447 514 36,000  Level Salt Lake Center
Thu 09:57:23 PM 40.4222 -116.9878 256° West 440 506 36,000  Level Salt Lake Center
Thu 09:58:25 PM 40.3947 -117.1486 257° West 444 511 36,000  Level Salt Lake Center
Thu 09:59:26 PM 40.3672 -117.2972 256° West 440 506 36,000  Level Salt Lake Center
Thu 10:00:28 PM 40.3164 -117.4394 245° Southwest 452 520 36,000  Level Salt Lake Center
Thu 10:01:30 PM 40.2422 -117.5981 239° Southwest 458 527 36,000  Level Salt Lake Center
Thu 10:02:31 PM 40.1792 -117.7364 239° Southwest 461 531 36,000 -146 Level Salt Lake Center
Thu 10:03:33 PM 40.1039 -117.8936 238° Southwest 458 527 35,700 -629 Descending Salt Lake Center
Thu 10:04:35 PM 40.0478 -118.0164 239° Southwest 451 519 34,700 -1,024 Descending Salt Lake Center
Thu 10:05:36 PM 39.9692 -118.1831 238° Southwest 450 518 33,600 -1,024 Descending Salt Lake Center
Thu 10:06:38 PM 39.9050 -118.3208 239° Southwest 447 514 32,600 -877 Descending Salt Lake Center
Thu 10:07:46 PM 39.8383 -118.4603 238° Southwest 450 518 31,700 -1,116 Descending Oakland Center
Thu 10:08:47 PM 39.7592 -118.6247 238° Southwest 451 519 30,200 -1,967 Descending Oakland Center
Thu 10:09:48 PM 39.6950 -118.7581 238° Southwest 443 510 27,700 -2,361 Descending Oakland Center
Thu 10:10:49 PM 39.6328 -118.8878 238° Southwest 431 496 25,400 -2,262 Descending Oakland Center
Thu 10:11:50 PM 39.5722 -119.0136 238° Southwest 421 484 23,100 -2,195 Descending Oakland Center
Thu 10:12:52 PM 39.5128 -119.1361 238° Southwest 407 468 20,900 -2,087 Descending Oakland Center
Thu 10:14:54 PM 39.4017 -119.3706 239° Southwest 384 442 16,700 -2,295 Descending Oakland Center
Thu 10:15:55 PM 39.3419 -119.5083 241° Southwest 366 421 13,900 -2,557 Descending Oakland Center
Thu 10:16:56 PM 39.2947 -119.6214 242° Southwest 359 413 11,500 -1,707 Descending Oakland Center
Thu 10:17:58 PM 39.2358 -119.7122 230° Southwest 340 391 10,400 -829 Descending Oakland Center
Thu 10:18:59 PM 39.2661 -119.7853 298° West 304 350 9,800 -934 Descending Oakland Center
Thu 10:20:00 PM 39.3339 -119.7656 13° North 263 303 8,500 -1,714 Descending Oakland Center
Thu 10:20:44 PM 39.3833 -119.7667 359° North 216 249 6,800 -2,318 Descending Northern Cal TRACON

Login

Don't have an account? Register now (free) for customized features, flight alerts, and more!